sensor_id;sensor_type;location;lat;lon;timestamp;P1;durP1;ratioP1;P2;durP2;ratioP2
78224;SDS011;67498;53.650;10.090;2023-07-22T00:00:48;5.70;;;2.27;;
78224;SDS011;67498;53.650;10.090;2023-07-22T00:03:13;6.73;;;2.50;;
78224;SDS011;67498;53.650;10.090;2023-07-22T00:05:42;8.27;;;2.37;;
78224;SDS011;67498;53.650;10.090;2023-07-22T00:08:07;9.03;;;2.57;;
78224;SDS011;67498;53.650;10.090;2023-07-22T00:10:32;6.60;;;2.30;;
78224;SDS011;67498;53.650;10.090;2023-07-22T00:12:57;6.70;;;2.03;;
78224;SDS011;67498;53.650;10.090;2023-07-22T00:15:23;6.37;;;2.47;;
78224;SDS011;67498;53.650;10.090;2023-07-22T00:17:50;10.20;;;2.63;;
78224;SDS011;67498;53.650;10.090;2023-07-22T00:20:15;8.85;;;2.65;;
78224;SDS011;67498;53.650;10.090;2023-07-22T00:22:41;8.47;;;3.40;;
78224;SDS011;67498;53.650;10.090;2023-07-22T00:25:07;6.97;;;2.63;;
78224;SDS011;67498;53.650;10.090;2023-07-22T00:27:36;7.70;;;2.63;;
78224;SDS011;67498;53.650;10.090;2023-07-22T00:30:02;8.35;;;3.17;;
78224;SDS011;67498;53.650;10.090;2023-07-22T00:32:29;9.60;;;2.97;;
78224;SDS011;67498;53.650;10.090;2023-07-22T00:34:54;10.27;;;2.83;;
78224;SDS011;67498;53.650;10.090;2023-07-22T00:37:19;8.23;;;3.10;;
78224;SDS011;67498;53.650;10.090;2023-07-22T00:39:45;8.00;;;3.13;;
78224;SDS011;67498;53.650;10.090;2023-07-22T00:42:10;7.60;;;2.80;;
78224;SDS011;67498;53.650;10.090;2023-07-22T00:44:35;7.53;;;2.17;;
78224;SDS011;67498;53.650;10.090;2023-07-22T00:47:01;9.53;;;2.93;;
78224;SDS011;67498;53.650;10.090;2023-07-22T00:49:27;8.52;;;3.13;;
78224;SDS011;67498;53.650;10.090;2023-07-22T00:51:53;9.33;;;2.80;;
78224;SDS011;67498;53.650;10.090;2023-07-22T00:54:21;28.50;;;7.47;;
78224;SDS011;67498;53.650;10.090;2023-07-22T00:56:46;21.53;;;8.97;;
78224;SDS011;67498;53.650;10.090;2023-07-22T00:59:12;8.98;;;2.95;;
78224;SDS011;67498;53.650;10.090;2023-07-22T01:01:40;10.05;;;2.38;;
78224;SDS011;67498;53.650;10.090;2023-07-22T01:04:05;11.80;;;2.75;;
78224;SDS011;67498;53.650;10.090;2023-07-22T01:06:30;7.13;;;2.20;;
78224;SDS011;67498;53.650;10.090;2023-07-22T01:08:56;8.47;;;2.40;;
78224;SDS011;67498;53.650;10.090;2023-07-22T01:11:22;8.20;;;3.05;;
78224;SDS011;67498;53.650;10.090;2023-07-22T01:13:49;8.90;;;3.10;;
78224;SDS011;67498;53.650;10.090;2023-07-22T01:16:14;12.20;;;2.67;;
78224;SDS011;67498;53.650;10.090;2023-07-22T01:18:39;9.17;;;2.83;;
78224;SDS011;67498;53.650;10.090;2023-07-22T01:21:05;11.37;;;3.17;;
78224;SDS011;67498;53.650;10.090;2023-07-22T01:23:31;7.00;;;2.85;;
78224;SDS011;67498;53.650;10.090;2023-07-22T01:25:56;7.67;;;2.30;;
78224;SDS011;67498;53.650;10.090;2023-07-22T01:28:23;7.00;;;2.83;;
78224;SDS011;67498;53.650;10.090;2023-07-22T01:30:49;7.47;;;2.50;;
78224;SDS011;67498;53.650;10.090;2023-07-22T01:33:14;8.97;;;3.10;;
78224;SDS011;67498;53.650;10.090;2023-07-22T01:35:40;11.47;;;2.77;;
78224;SDS011;67498;53.650;10.090;2023-07-22T01:38:06;8.85;;;2.92;;
78224;SDS011;67498;53.650;10.090;2023-07-22T01:40:33;7.40;;;2.63;;
78224;SDS011;67498;53.650;10.090;2023-07-22T01:42:58;10.53;;;3.03;;
78224;SDS011;67498;53.650;10.090;2023-07-22T01:45:23;8.33;;;2.27;;
78224;SDS011;67498;53.650;10.090;2023-07-22T01:47:48;7.20;;;2.73;;
78224;SDS011;67498;53.650;10.090;2023-07-22T01:50:14;8.57;;;2.47;;
78224;SDS011;67498;53.650;10.090;2023-07-22T01:52:39;8.13;;;3.37;;
78224;SDS011;67498;53.650;10.090;2023-07-22T01:55:04;8.30;;;2.70;;
78224;SDS011;67498;53.650;10.090;2023-07-22T01:57:31;11.35;;;3.45;;
78224;SDS011;67498;53.650;10.090;2023-07-22T01:59:57;9.55;;;3.53;;
78224;SDS011;67498;53.650;10.090;2023-07-22T02:02:22;8.93;;;3.07;;
78224;SDS011;67498;53.650;10.090;2023-07-22T02:04:47;12.47;;;4.27;;
78224;SDS011;67498;53.650;10.090;2023-07-22T02:07:13;5.70;;;2.23;;
78224;SDS011;67498;53.650;10.090;2023-07-22T02:09:38;7.65;;;2.92;;
78224;SDS011;67498;53.650;10.090;2023-07-22T02:12:04;10.50;;;2.63;;
78224;SDS011;67498;53.650;10.090;2023-07-22T02:14:31;7.97;;;2.57;;
78224;SDS011;67498;53.650;10.090;2023-07-22T02:16:56;8.05;;;3.08;;
78224;SDS011;67498;53.650;10.090;2023-07-22T02:19:21;7.00;;;2.57;;
78224;SDS011;67498;53.650;10.090;2023-07-22T02:21:47;6.53;;;2.60;;
78224;SDS011;67498;53.650;10.090;2023-07-22T02:24:14;6.80;;;2.07;;
78224;SDS011;67498;53.650;10.090;2023-07-22T02:26:40;9.02;;;2.85;;
78224;SDS011;67498;53.650;10.090;2023-07-22T02:29:05;9.03;;;2.50;;
78224;SDS011;67498;53.650;10.090;2023-07-22T02:31:30;11.77;;;2.80;;
78224;SDS011;67498;53.650;10.090;2023-07-22T02:33:55;9.33;;;3.03;;
78224;SDS011;67498;53.650;10.090;2023-07-22T02:36:21;9.27;;;2.77;;
78224;SDS011;67498;53.650;10.090;2023-07-22T02:38:46;6.17;;;2.10;;
78224;SDS011;67498;53.650;10.090;2023-07-22T02:41:11;9.63;;;2.80;;
78224;SDS011;67498;53.650;10.090;2023-07-22T02:43:36;11.03;;;2.60;;
78224;SDS011;67498;53.650;10.090;2023-07-22T02:46:02;13.70;;;3.90;;
78224;SDS011;67498;53.650;10.090;2023-07-22T02:48:29;7.20;;;2.53;;
78224;SDS011;67498;53.650;10.090;2023-07-22T02:51:01;7.63;;;2.78;;
78224;SDS011;67498;53.650;10.090;2023-07-22T02:53:33;13.77;;;2.83;;
78224;SDS011;67498;53.650;10.090;2023-07-22T02:56:01;6.82;;;2.58;;
78224;SDS011;67498;53.650;10.090;2023-07-22T02:58:27;6.90;;;2.13;;
78224;SDS011;67498;53.650;10.090;2023-07-22T03:00:52;7.10;;;2.00;;
78224;SDS011;67498;53.650;10.090;2023-07-22T03:03:17;6.90;;;2.50;;
78224;SDS011;67498;53.650;10.090;2023-07-22T03:05:44;7.00;;;2.45;;
78224;SDS011;67498;53.650;10.090;2023-07-22T03:08:09;10.65;;;2.35;;
78224;SDS011;67498;53.650;10.090;2023-07-22T03:10:34;9.37;;;2.53;;
78224;SDS011;67498;53.650;10.090;2023-07-22T03:13:00;6.47;;;1.97;;
78224;SDS011;67498;53.650;10.090;2023-07-22T03:15:28;8.95;;;2.28;;
78224;SDS011;67498;53.650;10.090;2023-07-22T03:17:54;8.53;;;2.80;;
78224;SDS011;67498;53.650;10.090;2023-07-22T03:20:20;6.00;;;2.03;;
78224;SDS011;67498;53.650;10.090;2023-07-22T03:22:47;8.95;;;1.95;;
78224;SDS011;67498;53.650;10.090;2023-07-22T03:25:12;8.63;;;2.57;;
78224;SDS011;67498;53.650;10.090;2023-07-22T03:27:39;13.68;;;2.97;;
78224;SDS011;67498;53.650;10.090;2023-07-22T03:30:05;10.23;;;2.40;;
78224;SDS011;67498;53.650;10.090;2023-07-22T03:32:32;9.10;;;2.47;;
78224;SDS011;67498;53.650;10.090;2023-07-22T03:34:58;7.40;;;2.33;;
78224;SDS011;67498;53.650;10.090;2023-07-22T03:37:23;7.40;;;2.23;;
78224;SDS011;67498;53.650;10.090;2023-07-22T03:39:49;10.40;;;2.67;;
78224;SDS011;67498;53.650;10.090;2023-07-22T03:42:15;6.45;;;2.30;;
78224;SDS011;67498;53.650;10.090;2023-07-22T03:44:40;10.07;;;2.40;;
78224;SDS011;67498;53.650;10.090;2023-07-22T03:47:06;9.00;;;2.67;;
78224;SDS011;67498;53.650;10.090;2023-07-22T03:49:31;8.43;;;1.93;;
78224;SDS011;67498;53.650;10.090;2023-07-22T03:51:56;13.70;;;2.87;;
78224;SDS011;67498;53.650;10.090;2023-07-22T03:54:21;12.57;;;2.83;;
78224;SDS011;67498;53.650;10.090;2023-07-22T03:56:47;9.90;;;2.33;;
78224;SDS011;67498;53.650;10.090;2023-07-22T03:59:12;9.30;;;2.13;;
78224;SDS011;67498;53.650;10.090;2023-07-22T04:01:37;9.00;;;2.27;;
78224;SDS011;67498;53.650;10.090;2023-07-22T04:04:03;9.48;;;2.35;;
78224;SDS011;67498;53.650;10.090;2023-07-22T04:06:28;9.00;;;2.20;;
78224;SDS011;67498;53.650;10.090;2023-07-22T04:08:53;8.37;;;2.47;;
78224;SDS011;67498;53.650;10.090;2023-07-22T04:11:18;8.40;;;3.03;;
78224;SDS011;67498;53.650;10.090;2023-07-22T04:13:44;9.67;;;2.67;;
78224;SDS011;67498;53.650;10.090;2023-07-22T04:16:09;13.07;;;2.53;;
78224;SDS011;67498;53.650;10.090;2023-07-22T04:18:35;7.00;;;2.00;;
78224;SDS011;67498;53.650;10.090;2023-07-22T04:21:00;11.03;;;2.67;;
78224;SDS011;67498;53.650;10.090;2023-07-22T04:23:26;13.20;;;2.28;;
78224;SDS011;67498;53.650;10.090;2023-07-22T04:25:52;7.03;;;2.30;;
78224;SDS011;67498;53.650;10.090;2023-07-22T04:28:18;10.63;;;2.20;;
78224;SDS011;67498;53.650;10.090;2023-07-22T04:30:43;11.48;;;3.05;;
78224;SDS011;67498;53.650;10.090;2023-07-22T04:33:18;11.77;;;2.50;;
78224;SDS011;67498;53.650;10.090;2023-07-22T04:35:44;6.35;;;1.85;;
78224;SDS011;67498;53.650;10.090;2023-07-22T04:38:09;9.00;;;2.50;;
78224;SDS011;67498;53.650;10.090;2023-07-22T04:40:35;6.67;;;2.10;;
78224;SDS011;67498;53.650;10.090;2023-07-22T04:43:00;10.77;;;2.40;;
78224;SDS011;67498;53.650;10.090;2023-07-22T04:45:26;11.23;;;2.15;;
78224;SDS011;67498;53.650;10.090;2023-07-22T04:47:52;8.43;;;2.33;;
78224;SDS011;67498;53.650;10.090;2023-07-22T04:50:17;12.27;;;2.87;;
78224;SDS011;67498;53.650;10.090;2023-07-22T04:52:44;7.18;;;2.47;;
78224;SDS011;67498;53.650;10.090;2023-07-22T04:55:11;7.47;;;2.22;;
78224;SDS011;67498;53.650;10.090;2023-07-22T04:57:38;10.57;;;2.20;;
78224;SDS011;67498;53.650;10.090;2023-07-22T05:00:05;8.43;;;2.25;;
78224;SDS011;67498;53.650;10.090;2023-07-22T05:02:34;6.05;;;2.30;;
78224;SDS011;67498;53.650;10.090;2023-07-22T05:04:59;8.93;;;2.23;;
78224;SDS011;67498;53.650;10.090;2023-07-22T05:07:24;6.53;;;1.87;;
78224;SDS011;67498;53.650;10.090;2023-07-22T05:09:50;8.43;;;2.30;;
78224;SDS011;67498;53.650;10.090;2023-07-22T05:12:16;9.68;;;2.45;;
78224;SDS011;67498;53.650;10.090;2023-07-22T05:14:42;8.70;;;1.97;;
78224;SDS011;67498;53.650;10.090;2023-07-22T05:17:07;8.07;;;2.20;;
78224;SDS011;67498;53.650;10.090;2023-07-22T05:19:32;12.60;;;4.27;;
78224;SDS011;67498;53.650;10.090;2023-07-22T05:21:58;8.40;;;2.33;;
78224;SDS011;67498;53.650;10.090;2023-07-22T05:24:23;6.57;;;2.10;;
78224;SDS011;67498;53.650;10.090;2023-07-22T05:26:48;8.17;;;2.40;;
78224;SDS011;67498;53.650;10.090;2023-07-22T05:29:13;6.40;;;2.03;;
78224;SDS011;67498;53.650;10.090;2023-07-22T05:31:39;8.70;;;1.90;;
78224;SDS011;67498;53.650;10.090;2023-07-22T05:34:04;7.20;;;1.97;;
78224;SDS011;67498;53.650;10.090;2023-07-22T05:36:29;6.73;;;2.13;;
78224;SDS011;67498;53.650;10.090;2023-07-22T05:38:54;9.10;;;1.80;;
78224;SDS011;67498;53.650;10.090;2023-07-22T05:41:20;13.00;;;5.23;;
78224;SDS011;67498;53.650;10.090;2023-07-22T05:43:45;14.33;;;5.63;;
78224;SDS011;67498;53.650;10.090;2023-07-22T05:46:10;8.23;;;2.70;;
78224;SDS011;67498;53.650;10.090;2023-07-22T05:48:36;8.60;;;2.40;;
78224;SDS011;67498;53.650;10.090;2023-07-22T05:51:01;7.07;;;2.10;;
78224;SDS011;67498;53.650;10.090;2023-07-22T05:53:26;10.93;;;2.55;;
78224;SDS011;67498;53.650;10.090;2023-07-22T05:55:52;9.63;;;2.20;;
78224;SDS011;67498;53.650;10.090;2023-07-22T05:58:18;9.23;;;2.40;;
78224;SDS011;67498;53.650;10.090;2023-07-22T06:00:43;8.87;;;2.67;;
78224;SDS011;67498;53.650;10.090;2023-07-22T06:03:08;5.80;;;2.20;;
78224;SDS011;67498;53.650;10.090;2023-07-22T06:05:34;7.77;;;2.10;;
78224;SDS011;67498;53.650;10.090;2023-07-22T06:07:59;7.17;;;1.83;;
78224;SDS011;67498;53.650;10.090;2023-07-22T06:10:24;5.60;;;1.47;;
78224;SDS011;67498;53.650;10.090;2023-07-22T06:12:50;8.37;;;1.83;;
78224;SDS011;67498;53.650;10.090;2023-07-22T06:15:15;4.97;;;1.60;;
78224;SDS011;67498;53.650;10.090;2023-07-22T06:17:41;13.33;;;4.20;;
78224;SDS011;67498;53.650;10.090;2023-07-22T06:20:06;10.30;;;3.73;;
78224;SDS011;67498;53.650;10.090;2023-07-22T06:22:32;7.65;;;1.70;;
78224;SDS011;67498;53.650;10.090;2023-07-22T06:24:57;7.27;;;1.80;;
78224;SDS011;67498;53.650;10.090;2023-07-22T06:27:22;5.83;;;1.87;;
78224;SDS011;67498;53.650;10.090;2023-07-22T06:29:48;3.97;;;1.40;;
78224;SDS011;67498;53.650;10.090;2023-07-22T06:32:13;6.03;;;1.30;;
78224;SDS011;67498;53.650;10.090;2023-07-22T06:34:38;5.53;;;1.53;;
78224;SDS011;67498;53.650;10.090;2023-07-22T06:37:03;9.40;;;3.20;;
78224;SDS011;67498;53.650;10.090;2023-07-22T06:39:29;18.50;;;5.75;;
78224;SDS011;67498;53.650;10.090;2023-07-22T06:41:54;7.53;;;1.60;;
78224;SDS011;67498;53.650;10.090;2023-07-22T06:44:20;6.10;;;1.60;;
78224;SDS011;67498;53.650;10.090;2023-07-22T06:46:45;5.10;;;1.50;;
78224;SDS011;67498;53.650;10.090;2023-07-22T06:49:11;7.85;;;1.50;;
78224;SDS011;67498;53.650;10.090;2023-07-22T06:51:36;8.23;;;1.20;;
78224;SDS011;67498;53.650;10.090;2023-07-22T06:54:02;5.40;;;1.30;;
78224;SDS011;67498;53.650;10.090;2023-07-22T06:56:28;3.60;;;0.90;;
78224;SDS011;67498;53.650;10.090;2023-07-22T06:58:53;4.60;;;1.20;;
78224;SDS011;67498;53.650;10.090;2023-07-22T07:01:18;4.03;;;1.10;;
78224;SDS011;67498;53.650;10.090;2023-07-22T07:03:43;3.37;;;0.97;;
78224;SDS011;67498;53.650;10.090;2023-07-22T07:06:09;4.73;;;1.30;;
78224;SDS011;67498;53.650;10.090;2023-07-22T07:08:34;5.67;;;1.07;;
78224;SDS011;67498;53.650;10.090;2023-07-22T07:10:59;5.17;;;1.07;;
78224;SDS011;67498;53.650;10.090;2023-07-22T07:13:26;4.22;;;0.90;;
78224;SDS011;67498;53.650;10.090;2023-07-22T07:15:51;4.63;;;0.90;;
78224;SDS011;67498;53.650;10.090;2023-07-22T07:18:16;3.50;;;0.90;;
78224;SDS011;67498;53.650;10.090;2023-07-22T07:20:42;4.28;;;0.80;;
78224;SDS011;67498;53.650;10.090;2023-07-22T07:23:08;4.28;;;0.93;;
78224;SDS011;67498;53.650;10.090;2023-07-22T07:25:33;3.37;;;0.73;;
78224;SDS011;67498;53.650;10.090;2023-07-22T07:27:58;2.83;;;0.70;;
78224;SDS011;67498;53.650;10.090;2023-07-22T07:30:24;3.53;;;1.00;;
78224;SDS011;67498;53.650;10.090;2023-07-22T07:32:49;3.60;;;0.70;;
78224;SDS011;67498;53.650;10.090;2023-07-22T07:35:14;3.47;;;0.80;;
78224;SDS011;67498;53.650;10.090;2023-07-22T07:37:39;4.03;;;0.80;;
78224;SDS011;67498;53.650;10.090;2023-07-22T07:40:05;4.47;;;0.60;;
78224;SDS011;67498;53.650;10.090;2023-07-22T07:42:31;3.35;;;0.80;;
78224;SDS011;67498;53.650;10.090;2023-07-22T07:44:56;6.13;;;0.97;;
78224;SDS011;67498;53.650;10.090;2023-07-22T07:47:21;2.70;;;0.53;;
78224;SDS011;67498;53.650;10.090;2023-07-22T07:49:47;3.72;;;0.60;;
78224;SDS011;67498;53.650;10.090;2023-07-22T07:52:12;3.47;;;0.53;;
78224;SDS011;67498;53.650;10.090;2023-07-22T07:54:38;3.03;;;0.67;;
78224;SDS011;67498;53.650;10.090;2023-07-22T07:57:03;2.73;;;0.60;;
78224;SDS011;67498;53.650;10.090;2023-07-22T07:59:29;2.90;;;0.60;;
78224;SDS011;67498;53.650;10.090;2023-07-22T08:01:54;2.77;;;0.50;;
78224;SDS011;67498;53.650;10.090;2023-07-22T08:04:19;3.13;;;0.60;;
78224;SDS011;67498;53.650;10.090;2023-07-22T08:06:45;1.93;;;0.33;;
78224;SDS011;67498;53.650;10.090;2023-07-22T08:09:10;2.27;;;0.40;;
78224;SDS011;67498;53.650;10.090;2023-07-22T08:11:36;2.58;;;0.60;;
78224;SDS011;67498;53.650;10.090;2023-07-22T08:14:02;4.30;;;0.60;;
78224;SDS011;67498;53.650;10.090;2023-07-22T08:16:28;3.78;;;0.93;;
78224;SDS011;67498;53.650;10.090;2023-07-22T08:18:53;4.60;;;0.40;;
78224;SDS011;67498;53.650;10.090;2023-07-22T08:21:18;2.17;;;0.47;;
78224;SDS011;67498;53.650;10.090;2023-07-22T08:23:45;4.95;;;0.60;;
78224;SDS011;67498;53.650;10.090;2023-07-22T08:26:10;4.07;;;0.70;;
78224;SDS011;67498;53.650;10.090;2023-07-22T08:28:36;2.75;;;0.70;;
78224;SDS011;67498;53.650;10.090;2023-07-22T08:31:01;3.33;;;0.70;;
78224;SDS011;67498;53.650;10.090;2023-07-22T08:33:26;3.27;;;0.70;;
78224;SDS011;67498;53.650;10.090;2023-07-22T08:35:52;4.17;;;0.50;;
78224;SDS011;67498;53.650;10.090;2023-07-22T08:38:17;2.50;;;0.60;;
78224;SDS011;67498;53.650;10.090;2023-07-22T08:40:43;2.27;;;0.37;;
78224;SDS011;67498;53.650;10.090;2023-07-22T08:43:08;3.00;;;0.50;;
78224;SDS011;67498;53.650;10.090;2023-07-22T08:45:36;2.83;;;0.60;;
78224;SDS011;67498;53.650;10.090;2023-07-22T08:48:03;1.92;;;0.40;;
78224;SDS011;67498;53.650;10.090;2023-07-22T08:50:34;4.03;;;0.73;;
78224;SDS011;67498;53.650;10.090;2023-07-22T08:53:10;2.63;;;0.52;;
78224;SDS011;67498;53.650;10.090;2023-07-22T08:55:37;3.03;;;0.60;;
78224;SDS011;67498;53.650;10.090;2023-07-22T08:58:05;8.10;;;0.50;;
78224;SDS011;67498;53.650;10.090;2023-07-22T09:00:32;3.10;;;0.57;;
78224;SDS011;67498;53.650;10.090;2023-07-22T09:02:58;2.30;;;0.40;;
78224;SDS011;67498;53.650;10.090;2023-07-22T09:05:24;2.80;;;0.55;;
78224;SDS011;67498;53.650;10.090;2023-07-22T09:07:50;3.53;;;0.60;;
78224;SDS011;67498;53.650;10.090;2023-07-22T09:10:15;2.27;;;0.40;;
78224;SDS011;67498;53.650;10.090;2023-07-22T09:12:41;1.98;;;0.38;;
78224;SDS011;67498;53.650;10.090;2023-07-22T09:15:10;2.40;;;0.43;;
78224;SDS011;67498;53.650;10.090;2023-07-22T09:17:38;9.13;;;0.60;;
78224;SDS011;67498;53.650;10.090;2023-07-22T09:20:03;2.45;;;0.40;;
78224;SDS011;67498;53.650;10.090;2023-07-22T09:22:31;2.67;;;0.40;;
78224;SDS011;67498;53.650;10.090;2023-07-22T09:25:42;2.13;;;0.40;;
78224;SDS011;67498;53.650;10.090;2023-07-22T09:27:46;2.20;;;0.30;;
78224;SDS011;67498;53.650;10.090;2023-07-22T09:30:30;3.08;;;0.50;;
78224;SDS011;67498;53.650;10.090;2023-07-22T09:32:59;2.45;;;0.40;;
78224;SDS011;67498;53.650;10.090;2023-07-22T09:35:25;4.20;;;0.68;;
78224;SDS011;67498;53.650;10.090;2023-07-22T09:37:53;2.33;;;0.40;;
78224;SDS011;67498;53.650;10.090;2023-07-22T09:40:20;2.90;;;0.40;;
78224;SDS011;67498;53.650;10.090;2023-07-22T09:42:49;3.03;;;0.50;;
78224;SDS011;67498;53.650;10.090;2023-07-22T09:45:16;2.20;;;0.50;;
78224;SDS011;67498;53.650;10.090;2023-07-22T09:47:43;2.10;;;0.40;;
78224;SDS011;67498;53.650;10.090;2023-07-22T09:50:10;2.60;;;0.52;;
78224;SDS011;67498;53.650;10.090;2023-07-22T09:52:50;3.90;;;0.60;;
78224;SDS011;67498;53.650;10.090;2023-07-22T09:55:18;2.28;;;0.30;;
78224;SDS011;67498;53.650;10.090;2023-07-22T09:57:45;2.07;;;0.40;;
78224;SDS011;67498;53.650;10.090;2023-07-22T10:00:12;4.35;;;0.50;;
78224;SDS011;67498;53.650;10.090;2023-07-22T10:02:40;2.10;;;0.40;;
78224;SDS011;67498;53.650;10.090;2023-07-22T10:05:08;2.60;;;0.43;;
78224;SDS011;67498;53.650;10.090;2023-07-22T10:07:36;2.67;;;0.50;;
78224;SDS011;67498;53.650;10.090;2023-07-22T10:10:03;2.10;;;0.43;;
78224;SDS011;67498;53.650;10.090;2023-07-22T10:12:29;2.83;;;0.63;;
78224;SDS011;67498;53.650;10.090;2023-07-22T10:14:54;2.53;;;0.60;;
78224;SDS011;67498;53.650;10.090;2023-07-22T10:17:20;1.85;;;0.30;;
78224;SDS011;67498;53.650;10.090;2023-07-22T10:19:46;1.70;;;0.30;;
78224;SDS011;67498;53.650;10.090;2023-07-22T10:22:13;2.17;;;0.45;;
78224;SDS011;67498;53.650;10.090;2023-07-22T10:24:39;1.97;;;0.40;;
78224;SDS011;67498;53.650;10.090;2023-07-22T10:27:06;3.63;;;0.45;;
78224;SDS011;67498;53.650;10.090;2023-07-22T10:29:32;4.30;;;0.47;;
78224;SDS011;67498;53.650;10.090;2023-07-22T10:31:58;3.10;;;0.47;;
78224;SDS011;67498;53.650;10.090;2023-07-22T10:34:24;2.20;;;0.45;;
78224;SDS011;67498;53.650;10.090;2023-07-22T10:36:49;2.07;;;0.60;;
78224;SDS011;67498;53.650;10.090;2023-07-22T10:39:25;3.80;;;0.67;;
78224;SDS011;67498;53.650;10.090;2023-07-22T10:41:57;2.50;;;0.60;;
78224;SDS011;67498;53.650;10.090;2023-07-22T10:44:25;2.70;;;0.80;;
78224;SDS011;67498;53.650;10.090;2023-07-22T10:46:57;2.53;;;0.60;;
78224;SDS011;67498;53.650;10.090;2023-07-22T10:49:23;2.58;;;0.50;;
78224;SDS011;67498;53.650;10.090;2023-07-22T10:51:49;3.17;;;0.80;;
78224;SDS011;67498;53.650;10.090;2023-07-22T10:54:31;4.25;;;0.60;;
78224;SDS011;67498;53.650;10.090;2023-07-22T10:57:01;3.38;;;0.65;;
78224;SDS011;67498;53.650;10.090;2023-07-22T10:59:28;2.65;;;0.60;;
78224;SDS011;67498;53.650;10.090;2023-07-22T11:02:01;6.03;;;1.05;;
78224;SDS011;67498;53.650;10.090;2023-07-22T11:04:26;2.80;;;0.60;;
78224;SDS011;67498;53.650;10.090;2023-07-22T11:07:00;2.70;;;0.52;;
78224;SDS011;67498;53.650;10.090;2023-07-22T11:12:05;2.88;;;0.50;;
78224;SDS011;67498;53.650;10.090;2023-07-22T11:14:34;5.00;;;0.80;;
78224;SDS011;67498;53.650;10.090;2023-07-22T11:17:03;3.15;;;0.77;;
78224;SDS011;67498;53.650;10.090;2023-07-22T11:19:30;3.92;;;0.90;;
78224;SDS011;67498;53.650;10.090;2023-07-22T11:21:57;3.13;;;0.73;;
78224;SDS011;67498;53.650;10.090;2023-07-22T11:24:22;3.47;;;0.97;;
78224;SDS011;67498;53.650;10.090;2023-07-22T11:26:49;3.47;;;0.80;;
78224;SDS011;67498;53.650;10.090;2023-07-22T11:29:16;3.35;;;0.90;;
78224;SDS011;67498;53.650;10.090;2023-07-22T11:31:42;3.10;;;0.60;;
78224;SDS011;67498;53.650;10.090;2023-07-22T11:34:10;3.67;;;0.90;;
78224;SDS011;67498;53.650;10.090;2023-07-22T11:36:36;3.28;;;0.80;;
78224;SDS011;67498;53.650;10.090;2023-07-22T11:39:09;3.30;;;0.70;;
78224;SDS011;67498;53.650;10.090;2023-07-22T11:41:35;4.15;;;0.95;;
78224;SDS011;67498;53.650;10.090;2023-07-22T11:44:01;3.10;;;0.80;;
78224;SDS011;67498;53.650;10.090;2023-07-22T11:46:33;3.50;;;0.80;;
78224;SDS011;67498;53.650;10.090;2023-07-22T11:48:59;2.97;;;0.67;;
78224;SDS011;67498;53.650;10.090;2023-07-22T11:51:24;4.50;;;0.80;;
78224;SDS011;67498;53.650;10.090;2023-07-22T11:53:50;3.80;;;0.90;;
78224;SDS011;67498;53.650;10.090;2023-07-22T11:56:18;6.10;;;0.75;;
78224;SDS011;67498;53.650;10.090;2023-07-22T11:58:48;3.47;;;0.93;;
78224;SDS011;67498;53.650;10.090;2023-07-22T12:01:14;3.60;;;1.00;;
78224;SDS011;67498;53.650;10.090;2023-07-22T12:03:40;4.00;;;1.05;;
78224;SDS011;67498;53.650;10.090;2023-07-22T12:06:06;3.73;;;0.80;;
78224;SDS011;67498;53.650;10.090;2023-07-22T12:08:32;6.22;;;1.30;;
78224;SDS011;67498;53.650;10.090;2023-07-22T12:10:58;5.18;;;1.10;;
78224;SDS011;67498;53.650;10.090;2023-07-22T12:13:24;5.07;;;1.23;;
78224;SDS011;67498;53.650;10.090;2023-07-22T12:16:02;3.95;;;1.30;;
78224;SDS011;67498;53.650;10.090;2023-07-22T12:18:40;3.87;;;0.87;;
78224;SDS011;67498;53.650;10.090;2023-07-22T12:21:06;4.93;;;1.30;;
78224;SDS011;67498;53.650;10.090;2023-07-22T12:23:32;6.13;;;1.40;;
78224;SDS011;67498;53.650;10.090;2023-07-22T12:25:57;8.03;;;1.40;;
78224;SDS011;67498;53.650;10.090;2023-07-22T12:28:22;4.23;;;1.30;;
78224;SDS011;67498;53.650;10.090;2023-07-22T12:30:47;3.97;;;1.13;;
78224;SDS011;67498;53.650;10.090;2023-07-22T12:33:13;5.13;;;0.95;;
78224;SDS011;67498;53.650;10.090;2023-07-22T12:35:39;4.10;;;1.27;;
78224;SDS011;67498;53.650;10.090;2023-07-22T12:38:04;4.03;;;1.20;;
78224;SDS011;67498;53.650;10.090;2023-07-22T12:40:29;7.00;;;1.20;;
78224;SDS011;67498;53.650;10.090;2023-07-22T12:42:54;3.73;;;1.13;;
78224;SDS011;67498;53.650;10.090;2023-07-22T12:45:20;5.30;;;1.37;;
78224;SDS011;67498;53.650;10.090;2023-07-22T12:47:45;5.72;;;1.35;;
78224;SDS011;67498;53.650;10.090;2023-07-22T12:50:10;4.97;;;1.40;;
78224;SDS011;67498;53.650;10.090;2023-07-22T12:52:36;5.20;;;1.53;;
78224;SDS011;67498;53.650;10.090;2023-07-22T12:55:01;6.10;;;1.40;;
78224;SDS011;67498;53.650;10.090;2023-07-22T12:57:27;5.53;;;1.73;;
78224;SDS011;67498;53.650;10.090;2023-07-22T12:59:53;4.57;;;1.33;;
78224;SDS011;67498;53.650;10.090;2023-07-22T13:02:18;4.70;;;1.70;;
78224;SDS011;67498;53.650;10.090;2023-07-22T13:04:43;5.90;;;1.67;;
78224;SDS011;67498;53.650;10.090;2023-07-22T13:07:09;7.27;;;2.00;;
78224;SDS011;67498;53.650;10.090;2023-07-22T13:09:34;5.97;;;1.67;;
78224;SDS011;67498;53.650;10.090;2023-07-22T13:11:59;6.57;;;1.70;;
78224;SDS011;67498;53.650;10.090;2023-07-22T13:14:24;5.73;;;1.90;;
78224;SDS011;67498;53.650;10.090;2023-07-22T13:16:50;4.83;;;1.53;;
78224;SDS011;67498;53.650;10.090;2023-07-22T13:19:15;7.63;;;2.03;;
78224;SDS011;67498;53.650;10.090;2023-07-22T13:21:40;4.80;;;2.03;;
78224;SDS011;67498;53.650;10.090;2023-07-22T13:24:05;6.70;;;2.17;;
78224;SDS011;67498;53.650;10.090;2023-07-22T13:26:31;5.70;;;1.92;;
78224;SDS011;67498;53.650;10.090;2023-07-22T13:28:56;6.93;;;2.30;;
78224;SDS011;67498;53.650;10.090;2023-07-22T13:31:21;7.70;;;2.13;;
78224;SDS011;67498;53.650;10.090;2023-07-22T13:33:46;5.63;;;2.03;;
78224;SDS011;67498;53.650;10.090;2023-07-22T13:36:12;10.57;;;1.70;;
78224;SDS011;67498;53.650;10.090;2023-07-22T13:38:37;6.80;;;1.90;;
78224;SDS011;67498;53.650;10.090;2023-07-22T13:41:02;7.57;;;2.07;;
78224;SDS011;67498;53.650;10.090;2023-07-22T13:43:28;4.53;;;1.63;;
78224;SDS011;67498;53.650;10.090;2023-07-22T13:45:53;7.37;;;2.13;;
78224;SDS011;67498;53.650;10.090;2023-07-22T13:48:18;6.90;;;1.90;;
78224;SDS011;67498;53.650;10.090;2023-07-22T13:50:44;6.65;;;2.42;;
78224;SDS011;67498;53.650;10.090;2023-07-22T13:53:09;6.67;;;2.40;;
78224;SDS011;67498;53.650;10.090;2023-07-22T13:55:35;6.00;;;1.97;;
78224;SDS011;67498;53.650;10.090;2023-07-22T13:58:00;11.40;;;2.80;;
78224;SDS011;67498;53.650;10.090;2023-07-22T14:00:25;7.80;;;2.30;;
78224;SDS011;67498;53.650;10.090;2023-07-22T14:02:50;6.00;;;2.37;;
78224;SDS011;67498;53.650;10.090;2023-07-22T14:05:16;6.40;;;2.33;;
78224;SDS011;67498;53.650;10.090;2023-07-22T14:07:41;7.77;;;3.00;;
78224;SDS011;67498;53.650;10.090;2023-07-22T14:10:06;7.20;;;2.78;;
78224;SDS011;67498;53.650;10.090;2023-07-22T14:12:33;11.77;;;2.50;;
78224;SDS011;67498;53.650;10.090;2023-07-22T14:14:59;6.27;;;2.33;;
78224;SDS011;67498;53.650;10.090;2023-07-22T14:17:24;8.37;;;2.30;;
78224;SDS011;67498;53.650;10.090;2023-07-22T14:19:50;8.03;;;2.27;;
78224;SDS011;67498;53.650;10.090;2023-07-22T14:22:15;7.47;;;2.30;;
78224;SDS011;67498;53.650;10.090;2023-07-22T14:24:41;7.23;;;2.40;;
78224;SDS011;67498;53.650;10.090;2023-07-22T14:27:06;8.13;;;3.37;;
78224;SDS011;67498;53.650;10.090;2023-07-22T14:29:32;11.37;;;2.63;;